createdAt,value
2018-12-21T00:00:04.137Z,144.63
2018-12-21T00:02:36.767Z,83.60
2018-12-21T00:05:07.607Z,221.17
2018-12-21T00:07:38.861Z,123.60
2018-12-21T00:10:09.598Z,72.07
2018-12-21T00:12:40.447Z,134.70
2018-12-21T00:15:11.379Z,218.83
2018-12-21T00:17:42.767Z,96.33
2018-12-21T00:20:14.588Z,256.77
2018-12-21T00:22:45.743Z,133.15
2018-12-21T00:25:16.482Z,24.87
2018-12-21T00:27:47.283Z,14.83
2018-12-21T00:30:22.801Z,13.17
2018-12-21T00:32:58.417Z,15.40
2018-12-21T00:35:33.817Z,18.57
2018-12-21T00:38:09.550Z,13.50
2018-12-21T00:40:45.238Z,29.33
2018-12-21T00:43:20.997Z,58.77
2018-12-21T00:45:57.624Z,53.77
2018-12-21T00:48:28.422Z,143.07
2018-12-21T00:50:59.117Z,231.90
2018-12-21T00:53:30.097Z,367.93
2018-12-21T00:56:00.792Z,242.40
2018-12-21T00:58:31.598Z,120.33
2018-12-21T01:01:02.505Z,102.23
2018-12-21T01:03:33.447Z,89.13
2018-12-21T01:06:04.107Z,73.17
2018-12-21T01:08:34.992Z,237.47
2018-12-21T01:11:05.803Z,181.17
2018-12-21T01:13:38.744Z,126.15
2018-12-21T01:16:09.492Z,300.63
2018-12-21T01:18:41.307Z,163.30
2018-12-21T01:21:12.812Z,212.60
2018-12-21T01:23:43.717Z,264.00
2018-12-21T01:26:14.447Z,232.13
2018-12-21T01:28:45.346Z,293.23
2018-12-21T01:31:16.032Z,137.90
2018-12-21T01:33:46.817Z,178.63
2018-12-21T01:36:17.492Z,189.77
2018-12-21T01:38:48.226Z,130.73
2018-12-21T01:41:18.901Z,329.60
2018-12-21T01:43:49.676Z,221.40
2018-12-21T01:46:20.398Z,171.67
2018-12-21T01:48:51.180Z,136.57
2018-12-21T01:51:21.847Z,130.23
2018-12-21T01:53:52.752Z,106.80
2018-12-21T01:56:23.457Z,116.57
2018-12-21T01:58:54.317Z,160.70
2018-12-21T02:01:25.015Z,97.07
2018-12-21T02:03:55.817Z,83.37
2018-12-21T02:06:26.507Z,38.63
2018-12-21T02:08:57.328Z,113.40
2018-12-21T02:11:28.084Z,173.87
2018-12-21T02:13:59.938Z,215.33
2018-12-21T02:16:30.653Z,156.87
2018-12-21T02:19:01.818Z,91.97
2018-12-21T02:21:32.543Z,227.87
2018-12-21T02:24:03.546Z,115.30
2018-12-21T02:26:34.203Z,44.47
2018-12-21T02:29:04.993Z,25.30
2018-12-21T02:31:35.653Z,21.30
2018-12-21T02:34:06.443Z,309.48
2018-12-21T02:36:37.290Z,305.63
2018-12-21T02:39:08.723Z,97.80
2018-12-21T02:41:39.394Z,142.67
2018-12-21T02:44:10.194Z,125.40
2018-12-21T02:46:41.033Z,13.53
2018-12-21T02:49:11.760Z,22.65
2018-12-21T02:51:42.803Z,26.27
2018-12-21T02:54:13.673Z,9.77
2018-12-21T02:56:44.455Z,12.70
2018-12-21T02:59:15.203Z,33.47
2018-12-21T03:01:45.919Z,124.77
2018-12-21T03:19:21.972Z,11.67
2018-12-21T03:21:52.676Z,10.20
2018-12-21T03:24:23.518Z,16.80
2018-12-21T03:26:54.243Z,13.90
2018-12-21T03:29:25.072Z,35.63
2018-12-21T03:31:55.784Z,13.80
2018-12-21T03:34:26.530Z,25.70
2018-12-21T03:36:57.283Z,84.37
2018-12-21T03:39:27.989Z,27.67
2018-12-21T03:41:59.785Z,278.73
2018-12-21T03:44:30.489Z,441.13
2018-12-21T03:47:02.459Z,14.00
2018-12-21T03:49:33.329Z,58.33
2018-12-21T03:52:04.083Z,77.22
2018-12-21T03:54:34.739Z,75.97
2018-12-21T03:57:05.516Z,183.60
2018-12-21T03:59:36.288Z,236.67
2018-12-21T04:02:07.300Z,135.20
2018-12-21T04:04:37.995Z,69.53
2018-12-21T04:07:08.804Z,26.27
2018-12-21T04:09:39.485Z,28.57
2018-12-21T04:12:10.183Z,18.53
2018-12-21T04:14:40.886Z,10.87
2018-12-21T04:17:11.628Z,14.17
2018-12-21T04:19:42.863Z,11.33
2018-12-21T04:22:13.732Z,8.27
2018-12-21T04:24:44.978Z,9.53
2018-12-21T04:27:15.618Z,5.93
2018-12-21T04:29:46.364Z,7.97
2018-12-21T04:32:17.024Z,4.90
2018-12-21T04:34:47.978Z,3.97
2018-12-21T04:37:18.904Z,4.30
2018-12-21T04:39:49.664Z,4.50
2018-12-21T04:42:20.333Z,5.97
2018-12-21T04:44:51.103Z,10.18
2018-12-21T04:47:21.748Z,8.70
2018-12-21T04:49:52.503Z,10.17
2018-12-21T04:52:23.575Z,8.97
2018-12-21T04:54:54.299Z,29.73
2018-12-21T04:57:24.979Z,67.67
2018-12-21T04:59:55.748Z,38.03
2018-12-21T05:02:26.438Z,9.87
2018-12-21T05:04:57.218Z,10.35
2018-12-21T05:07:27.887Z,10.40
2018-12-21T05:09:58.659Z,12.73
2018-12-21T05:12:29.440Z,121.13
2018-12-21T05:15:00.259Z,19.43
2018-12-21T05:17:30.923Z,65.60
2018-12-21T05:20:02.069Z,132.63
2018-12-21T05:22:32.869Z,24.10
2018-12-21T05:25:03.658Z,10.37
2018-12-21T05:27:34.433Z,9.43
2018-12-21T05:30:05.318Z,11.90
2018-12-21T05:32:35.983Z,14.07
2018-12-21T05:35:06.864Z,43.17
2018-12-21T05:37:37.558Z,108.07
2018-12-21T05:40:08.665Z,256.37
2018-12-21T05:42:39.339Z,124.67
2018-12-21T05:45:10.188Z,24.97
2018-12-21T05:47:40.858Z,46.20
2018-12-21T05:50:11.624Z,97.67
2018-12-21T05:52:42.518Z,37.30
2018-12-21T05:55:13.322Z,76.73
2018-12-21T05:57:44.034Z,172.63
2018-12-21T06:00:14.859Z,33.53
2018-12-21T06:02:45.599Z,26.77
2018-12-21T06:05:16.364Z,102.10
2018-12-21T06:07:47.168Z,216.93
2018-12-21T06:10:17.968Z,255.60
2018-12-21T06:12:48.660Z,285.13
2018-12-21T06:15:19.418Z,209.03
2018-12-21T06:17:50.099Z,245.50
2018-12-21T06:20:21.245Z,408.50
2018-12-21T06:22:52.243Z,241.38
2018-12-21T06:25:23.040Z,336.63
2018-12-21T06:27:53.773Z,188.83
2018-12-21T06:30:24.543Z,164.67
2018-12-21T06:32:55.258Z,308.77
2018-12-21T06:35:26.082Z,110.07
2018-12-21T06:37:56.853Z,294.65
2018-12-21T06:40:27.734Z,159.30
2018-12-21T06:42:58.463Z,333.83
2018-12-21T06:45:29.243Z,148.60
2018-12-21T06:47:59.964Z,246.70
2018-12-21T06:50:30.887Z,131.30
2018-12-21T06:53:01.758Z,19.07
2018-12-21T06:55:32.709Z,39.50
2018-12-21T06:58:03.638Z,13.10
2018-12-21T07:00:34.579Z,12.13
2018-12-21T07:03:05.363Z,56.18
2018-12-21T07:05:36.339Z,33.43
2018-12-21T07:08:07.138Z,73.70
2018-12-21T07:10:38.061Z,16.47
2018-12-21T07:13:08.883Z,56.93
2018-12-21T07:15:40.069Z,176.13
2018-12-21T07:18:10.808Z,215.50
2018-12-21T07:20:42.070Z,87.87
2018-12-21T07:23:12.983Z,28.07
2018-12-21T07:25:43.803Z,98.03
2018-12-21T07:28:14.587Z,36.80
2018-12-21T07:30:45.403Z,80.47
2018-12-21T07:33:16.138Z,95.87
2018-12-21T07:35:47.058Z,20.47
2018-12-21T07:38:17.843Z,11.13
2018-12-21T07:40:49.288Z,36.47
2018-12-21T07:43:20.018Z,26.90
2018-12-21T07:45:50.964Z,17.33
2018-12-21T07:48:21.779Z,23.40
2018-12-21T07:50:52.648Z,40.40
2018-12-21T07:53:23.644Z,47.58
2018-12-21T07:55:54.663Z,31.77
2018-12-21T07:58:25.519Z,57.07
2018-12-21T08:00:56.337Z,34.20
2018-12-21T08:03:27.392Z,22.57
2018-12-21T08:05:58.283Z,30.97
2018-12-21T08:08:29.157Z,43.37
2018-12-21T08:11:00.033Z,80.23
2018-12-21T08:13:30.802Z,41.50
2018-12-21T08:16:01.747Z,116.80
2018-12-21T08:18:32.537Z,191.17
2018-12-21T08:21:03.948Z,185.03
2018-12-21T08:23:34.941Z,238.47
2018-12-21T08:26:05.853Z,178.62
2018-12-21T08:28:36.707Z,282.87
2018-12-21T08:31:07.652Z,65.25
2018-12-21T08:33:39.083Z,198.33
2018-12-21T08:36:10.074Z,40.77
2018-12-21T08:38:40.940Z,30.43
2018-12-21T08:41:11.798Z,67.00
2018-12-21T08:43:42.882Z,104.03
2018-12-21T08:46:13.917Z,132.27
2018-12-21T08:48:45.108Z,44.97
2018-12-21T08:51:16.100Z,27.03
2018-12-21T08:53:52.466Z,17.00
2018-12-21T08:56:20.712Z,15.40
2018-12-21T08:58:51.582Z,12.77
2018-12-21T09:01:22.544Z,20.47
2018-12-21T09:03:53.532Z,16.87
2018-12-21T09:06:24.454Z,17.90
2018-12-21T09:08:55.257Z,15.20
2018-12-21T09:11:26.088Z,12.77
2018-12-21T09:13:56.917Z,16.55
2018-12-21T09:16:27.757Z,15.57
2018-12-21T09:18:58.573Z,10.43
2018-12-21T09:21:29.967Z,23.00
2018-12-21T09:24:01.093Z,14.20
2018-12-21T09:26:33.547Z,13.67
2018-12-21T09:29:04.322Z,10.10
2018-12-21T09:31:35.267Z,10.03
2018-12-21T09:34:06.293Z,10.63
2018-12-21T09:36:37.147Z,13.10
2018-12-21T09:39:08.811Z,12.10
2018-12-21T09:41:40.892Z,13.00
2018-12-21T09:44:11.607Z,15.27
2018-12-21T09:46:42.595Z,8.00
2018-12-21T09:49:14.181Z,17.63
2018-12-21T09:51:45.458Z,12.60
2018-12-21T09:54:16.932Z,13.77
2018-12-21T09:56:48.008Z,9.27
2018-12-21T09:59:19.081Z,7.87
2018-12-21T10:01:50.002Z,12.20
2018-12-21T10:04:20.842Z,7.73
2018-12-21T10:06:52.752Z,9.57
2018-12-21T10:09:23.507Z,8.80
2018-12-21T10:11:54.832Z,5.70
2018-12-21T10:14:26.897Z,14.57
2018-12-21T10:16:59.737Z,9.45
2018-12-21T10:19:34.367Z,11.33
2018-12-21T10:22:09.467Z,5.30
2018-12-21T10:24:45.243Z,11.77
2018-12-21T10:27:17.164Z,6.67
2018-12-21T10:30:07.592Z,5.47
2018-12-21T10:32:40.991Z,6.77
2018-12-21T10:35:12.332Z,6.87
2018-12-21T10:37:46.787Z,5.23
2018-12-21T10:40:20.301Z,5.10
2018-12-21T10:42:54.676Z,6.50
2018-12-21T10:45:27.887Z,6.83
2018-12-21T10:48:05.922Z,6.80
2018-12-21T10:50:36.843Z,6.77
2018-12-21T10:53:07.851Z,5.73
2018-12-21T10:55:38.867Z,8.03
2018-12-21T10:58:09.937Z,7.55
2018-12-21T11:00:40.876Z,18.03
2018-12-21T11:03:11.891Z,10.10
2018-12-21T11:05:42.821Z,13.50
2018-12-21T11:08:13.876Z,10.83
2018-12-21T11:10:45.894Z,11.70
2018-12-21T11:13:17.021Z,9.00
2018-12-21T11:15:47.978Z,9.03
2018-12-21T11:18:19.006Z,10.33
2018-12-21T11:20:49.872Z,12.73
2018-12-21T11:23:21.500Z,9.20
2018-12-21T11:25:53.317Z,13.37
2018-12-21T11:28:25.544Z,22.80
2018-12-21T11:30:56.812Z,14.80
2018-12-21T11:33:27.841Z,12.43
2018-12-21T11:35:58.671Z,17.33
2018-12-21T11:38:29.716Z,13.43
2018-12-21T11:41:00.625Z,16.50
2018-12-21T11:43:31.538Z,9.67
2018-12-21T11:46:02.424Z,10.73
2018-12-21T11:48:33.316Z,11.97
2018-12-21T11:51:04.172Z,13.70
2018-12-21T11:53:35.051Z,10.17
2018-12-21T11:56:06.011Z,11.17
2018-12-21T11:58:36.946Z,9.47
2018-12-21T12:01:07.817Z,9.60
2018-12-21T12:03:38.742Z,6.97
2018-12-21T12:06:09.587Z,9.53
2018-12-21T12:08:40.547Z,11.17
2018-12-21T12:11:11.314Z,12.33
2018-12-21T12:13:42.213Z,10.00
2018-12-21T12:16:12.976Z,14.03
2018-12-21T12:18:43.821Z,8.70
2018-12-21T12:21:14.691Z,11.57
2018-12-21T12:23:46.266Z,19.37
2018-12-21T12:26:17.201Z,7.13
2018-12-21T12:28:48.046Z,7.97
2018-12-21T12:31:18.851Z,9.27
2018-12-21T12:33:49.812Z,8.43
2018-12-21T12:36:20.732Z,8.00
2018-12-21T12:38:51.701Z,7.57
2018-12-21T12:41:22.472Z,10.07
2018-12-21T12:43:53.506Z,7.87
2018-12-21T12:46:24.358Z,8.43
2018-12-21T12:48:55.311Z,9.97
2018-12-21T12:51:26.116Z,7.53
2018-12-21T12:53:57.001Z,12.83
2018-12-21T12:56:27.783Z,11.20
2018-12-21T12:59:00.957Z,11.67
2018-12-21T13:01:31.986Z,7.57
2018-12-21T13:04:03.091Z,16.17
2018-12-21T13:06:33.987Z,14.73
2018-12-21T13:09:06.207Z,12.60
2018-12-21T13:11:37.231Z,9.90
2018-12-21T13:14:08.351Z,13.62
2018-12-21T13:16:39.226Z,12.80
2018-12-21T13:19:10.302Z,9.13
2018-12-21T13:21:41.521Z,8.57
2018-12-21T13:24:13.117Z,11.30
2018-12-21T13:26:44.327Z,11.77
2018-12-21T13:29:15.384Z,14.90
2018-12-21T13:31:46.337Z,13.67
2018-12-21T13:34:17.411Z,15.63
2018-12-21T13:36:48.532Z,16.43
2018-12-21T13:39:19.642Z,17.67
2018-12-21T13:41:50.378Z,18.80
2018-12-21T13:44:21.331Z,11.57
2018-12-21T13:46:52.212Z,9.27
2018-12-21T13:49:23.328Z,15.57
2018-12-21T13:51:54.331Z,15.43
2018-12-21T13:54:25.612Z,15.40
2018-12-21T13:56:57.706Z,19.47
2018-12-21T13:59:28.852Z,16.83
2018-12-21T14:01:59.928Z,11.30
2018-12-21T14:04:30.922Z,13.10
2018-12-21T14:07:01.952Z,15.63
2018-12-21T14:09:33.152Z,17.53
2018-12-21T14:12:04.248Z,10.93
2018-12-21T14:14:35.682Z,18.63
2018-12-21T14:17:07.027Z,13.40
2018-12-21T14:19:43.042Z,80.03
2018-12-21T14:22:14.251Z,16.23
2018-12-21T14:24:45.671Z,20.10
2018-12-21T14:27:16.781Z,24.43
2018-12-21T14:29:47.846Z,20.53
2018-12-21T14:32:18.939Z,16.83
2018-12-21T14:34:49.941Z,23.47
2018-12-21T14:37:21.507Z,20.62
2018-12-21T14:39:52.492Z,23.37
2018-12-21T14:42:23.412Z,21.20
2018-12-21T14:44:54.326Z,15.40
2018-12-21T14:47:25.435Z,22.60
2018-12-21T14:49:56.511Z,19.87
2018-12-21T14:52:27.638Z,16.03
2018-12-21T14:54:59.313Z,30.75
2018-12-21T14:57:30.484Z,21.50
2018-12-21T15:00:01.470Z,19.33
2018-12-21T15:02:32.447Z,23.27
2018-12-21T15:05:03.607Z,18.00
2018-12-21T15:07:34.523Z,24.57
2018-12-21T15:10:06.801Z,21.55
2018-12-21T15:12:37.872Z,16.73
2018-12-21T15:15:09.852Z,20.20
2018-12-21T15:17:40.817Z,22.83
2018-12-21T15:20:12.556Z,25.43
2018-12-21T15:22:43.547Z,23.97
2018-12-21T15:25:15.170Z,37.93
2018-12-21T15:27:46.177Z,31.13
2018-12-21T15:30:20.137Z,27.73
2018-12-21T15:32:51.090Z,25.33
2018-12-21T15:35:22.442Z,31.87
2018-12-21T15:37:53.562Z,33.67
2018-12-21T15:40:24.558Z,31.93
2018-12-21T15:42:55.632Z,27.63
2018-12-21T15:45:26.724Z,27.43
2018-12-21T15:47:57.737Z,16.93
2018-12-21T15:50:28.862Z,16.87
2018-12-21T15:53:00.473Z,18.87
2018-12-21T15:55:31.433Z,22.17
2018-12-21T15:58:02.653Z,18.67
2018-12-21T16:00:33.717Z,29.83
2018-12-21T16:03:06.092Z,22.27
2018-12-21T16:05:37.252Z,28.60
2018-12-21T16:08:08.207Z,24.63
2018-12-21T16:10:39.173Z,22.57
2018-12-21T16:13:16.677Z,30.83
2018-12-21T16:15:47.768Z,24.43
2018-12-21T16:18:18.547Z,21.83
2018-12-21T16:20:52.893Z,28.90
2018-12-21T16:23:23.658Z,31.00
2018-12-21T16:26:03.256Z,21.77
2018-12-21T16:28:28.294Z,28.70
2018-12-21T16:30:59.178Z,28.70
2018-12-21T16:33:30.032Z,35.00
2018-12-21T16:36:01.333Z,28.90
2018-12-21T16:38:32.564Z,25.97
2018-12-21T16:41:04.405Z,28.50
2018-12-21T16:43:35.683Z,24.37
2018-12-21T16:46:06.832Z,25.72
2018-12-21T16:48:37.617Z,26.10
2018-12-21T16:51:08.487Z,21.23
2018-12-21T16:53:39.632Z,27.30
2018-12-21T16:56:12.633Z,25.17
2018-12-21T16:58:43.895Z,25.27
2018-12-21T17:01:14.853Z,28.13
2018-12-21T17:03:45.852Z,25.20
2018-12-21T17:06:16.818Z,27.57
2018-12-21T17:08:47.715Z,22.03
2018-12-21T17:11:18.897Z,26.30
2018-12-21T17:13:49.812Z,26.87
2018-12-21T17:16:27.062Z,23.93
2018-12-21T17:18:58.083Z,20.50
2018-12-21T17:21:29.093Z,23.10
2018-12-21T17:24:00.001Z,22.40
2018-12-21T17:26:31.398Z,20.97
2018-12-21T17:29:02.723Z,21.07
2018-12-21T17:31:33.747Z,29.07
2018-12-21T17:34:04.751Z,19.60
2018-12-21T17:36:35.752Z,24.03
2018-12-21T17:39:08.882Z,20.10
2018-12-21T17:41:39.787Z,19.77
2018-12-21T17:44:10.568Z,21.95
2018-12-21T17:46:41.532Z,18.00
2018-12-21T17:49:12.392Z,23.27
2018-12-21T17:51:43.583Z,20.10
2018-12-21T17:54:15.093Z,18.97
2018-12-21T17:56:46.122Z,22.10
2018-12-21T17:59:17.603Z,23.17
2018-12-21T18:01:48.983Z,17.83
2018-12-21T18:04:26.140Z,21.87
2018-12-21T18:06:57.277Z,23.63
2018-12-21T18:09:32.503Z,23.20
2018-12-21T18:12:03.702Z,26.95
2018-12-21T18:14:34.642Z,22.53
2018-12-21T18:17:06.397Z,23.07
2018-12-21T18:19:37.427Z,34.40
2018-12-21T18:22:14.838Z,34.47
2018-12-21T18:24:47.164Z,25.43
2018-12-21T18:27:18.723Z,23.93
2018-12-21T18:29:49.842Z,29.27
2018-12-21T18:32:25.642Z,25.55
2018-12-21T18:34:58.743Z,20.27
2018-12-21T18:37:30.247Z,21.43
2018-12-21T18:40:01.309Z,20.20
2018-12-21T18:42:32.602Z,24.23
2018-12-21T18:45:04.348Z,30.20
2018-12-21T18:47:35.592Z,20.20
2018-12-21T18:50:06.668Z,27.43
2018-12-21T18:52:38.947Z,35.23
2018-12-21T18:55:11.987Z,31.70
2018-12-21T18:57:43.317Z,23.63
2018-12-21T19:00:16.557Z,28.47
2018-12-21T19:02:48.834Z,23.20
2018-12-21T19:05:19.843Z,25.47
2018-12-21T19:07:51.097Z,30.90
2018-12-21T19:10:22.107Z,20.82
2018-12-21T19:12:53.295Z,28.87
2018-12-21T19:15:24.418Z,26.40
2018-12-21T19:17:55.580Z,25.37
2018-12-21T19:20:26.658Z,25.03
2018-12-21T19:22:57.838Z,25.93
2018-12-21T19:25:28.808Z,26.87
2018-12-21T19:28:00.604Z,19.17
2018-12-21T19:30:31.872Z,27.30
2018-12-21T19:33:03.018Z,25.03
2018-12-21T19:35:33.993Z,24.87
2018-12-21T19:38:05.592Z,26.50
2018-12-21T19:40:36.733Z,31.73
2018-12-21T19:43:08.150Z,37.77
2018-12-21T19:45:39.173Z,29.43
2018-12-21T19:48:10.301Z,24.63
2018-12-21T19:50:41.458Z,23.80
2018-12-21T19:53:12.873Z,25.70
2018-12-21T19:55:54.883Z,23.93
2018-12-21T19:58:27.252Z,22.77
2018-12-21T20:00:58.237Z,33.23
2018-12-21T20:03:29.357Z,27.37
2018-12-21T20:06:00.532Z,23.00
2018-12-21T20:08:31.798Z,29.83
2018-12-21T20:11:02.949Z,26.33
2018-12-21T20:13:34.566Z,25.20
2018-12-21T20:16:06.432Z,28.73
2018-12-21T20:18:37.457Z,29.23
2018-12-21T20:21:08.602Z,34.80
2018-12-21T20:23:39.844Z,25.07
2018-12-21T20:26:10.943Z,30.17
2018-12-21T20:28:42.443Z,30.57
2018-12-21T20:31:14.081Z,31.53
2018-12-21T20:33:45.822Z,31.57
2018-12-21T20:36:16.882Z,23.90
2018-12-21T20:38:48.462Z,37.33
2018-12-21T20:41:19.472Z,32.53
2018-12-21T20:43:50.597Z,30.43
2018-12-21T20:46:21.567Z,26.77
2018-12-21T20:48:53.505Z,28.23
2018-12-21T20:51:24.422Z,32.77
2018-12-21T20:53:55.541Z,31.83
2018-12-21T20:56:26.471Z,24.40
2018-12-21T20:59:02.951Z,26.80
2018-12-21T21:01:34.261Z,29.13
2018-12-21T21:04:06.486Z,24.27
2018-12-21T21:06:37.696Z,30.80
2018-12-21T21:09:11.256Z,26.33
2018-12-21T21:11:42.526Z,30.00
2018-12-21T21:14:14.976Z,32.58
2018-12-21T21:16:46.006Z,32.40
2018-12-21T21:19:17.166Z,33.28
2018-12-21T21:21:48.300Z,34.13
2018-12-21T21:24:19.395Z,30.17
2018-12-21T21:26:50.400Z,32.50
2018-12-21T21:29:21.910Z,33.60
2018-12-21T21:31:52.960Z,30.27
2018-12-21T21:34:24.050Z,27.70
2018-12-21T21:36:55.280Z,29.20
2018-12-21T21:39:26.308Z,28.00
2018-12-21T21:41:57.234Z,25.77
2018-12-21T21:44:28.385Z,39.73
2018-12-21T21:46:59.375Z,33.63
2018-12-21T21:49:30.476Z,28.77
2018-12-21T21:52:01.415Z,36.37
2018-12-21T21:54:32.360Z,31.97
2018-12-21T21:57:04.525Z,26.87
2018-12-21T21:59:35.615Z,29.83
2018-12-21T22:02:06.846Z,32.80
2018-12-21T22:04:37.790Z,46.27
2018-12-21T22:07:08.960Z,28.35
2018-12-21T22:09:40.107Z,30.23
2018-12-21T22:12:11.104Z,34.20
2018-12-21T22:14:45.255Z,31.23
2018-12-21T22:17:16.180Z,28.50
2018-12-21T22:19:47.269Z,32.20
2018-12-21T22:22:18.156Z,29.30
2018-12-21T22:24:49.184Z,30.83
2018-12-21T22:27:20.259Z,28.47
2018-12-21T22:29:51.609Z,35.40
2018-12-21T22:32:22.884Z,31.17
2018-12-21T22:34:53.959Z,36.93
2018-12-21T22:37:24.975Z,29.13
2018-12-21T22:39:56.459Z,33.63
2018-12-21T22:42:27.453Z,31.67
2018-12-21T22:44:58.513Z,27.33
2018-12-21T22:47:31.199Z,36.20
2018-12-21T22:50:02.177Z,36.03
2018-12-21T22:52:33.209Z,33.70
2018-12-21T22:55:04.970Z,38.30
2018-12-21T22:57:36.033Z,31.00
2018-12-21T23:00:13.264Z,34.37
2018-12-21T23:02:44.434Z,30.20
2018-12-21T23:05:16.373Z,33.73
2018-12-21T23:07:47.443Z,32.07
2018-12-21T23:10:18.673Z,35.68
2018-12-21T23:12:49.643Z,40.97
2018-12-21T23:15:20.685Z,32.70
2018-12-21T23:17:51.618Z,32.83
2018-12-21T23:20:22.657Z,33.35
2018-12-21T23:22:53.528Z,32.27
2018-12-21T23:25:24.612Z,42.03
2018-12-21T23:27:55.488Z,29.20
2018-12-21T23:30:27.088Z,28.95
2018-12-21T23:32:58.083Z,31.07
2018-12-21T23:35:29.367Z,45.20
2018-12-21T23:38:00.248Z,34.10
2018-12-21T23:40:31.138Z,33.47
2018-12-21T23:43:02.058Z,37.20
2018-12-21T23:45:33.238Z,33.38
2018-12-21T23:48:04.128Z,35.23
2018-12-21T23:50:35.013Z,40.27
2018-12-21T23:53:05.914Z,33.87
2018-12-21T23:55:36.783Z,37.93
2018-12-21T23:58:13.637Z,35.07
